createdAt,value
2024-02-10T00:00:28.807Z,18.17
2024-02-10T00:02:59.957Z,15.32
2024-02-10T00:05:36.916Z,15.05
2024-02-10T00:08:04.642Z,17.60
2024-02-10T00:10:32.188Z,17.75
2024-02-10T00:13:01.651Z,16.23
2024-02-10T00:15:29.458Z,17.90
2024-02-10T00:17:57.415Z,16.33
2024-02-10T00:20:27.640Z,15.77
2024-02-10T00:22:55.644Z,16.05
2024-02-10T00:25:26.257Z,16.05
2024-02-10T00:27:59.958Z,15.23
2024-02-10T00:30:31.201Z,16.38
2024-02-10T00:33:03.318Z,14.18
2024-02-10T00:35:40.482Z,16.15
2024-02-10T00:38:07.717Z,18.02
2024-02-10T00:40:35.264Z,17.52
2024-02-10T00:43:05.908Z,14.65
2024-02-10T00:45:33.458Z,13.75
2024-02-10T00:48:01.853Z,19.02
2024-02-10T00:50:29.287Z,20.80
2024-02-10T00:52:56.676Z,14.73
2024-02-10T00:55:27.174Z,16.08
2024-02-10T00:57:54.668Z,21.33
2024-02-10T01:00:23.526Z,19.20
2024-02-10T01:02:52.382Z,16.90
2024-02-10T01:05:20.149Z,22.58
2024-02-10T01:07:49.296Z,18.67
2024-02-10T01:10:17.320Z,16.02
2024-02-10T01:12:45.049Z,14.93
2024-02-10T01:15:14.787Z,17.23
2024-02-10T01:17:48.208Z,21.27
2024-02-10T01:20:18.661Z,16.55
2024-02-10T01:22:46.841Z,14.02
2024-02-10T01:25:14.567Z,17.92
2024-02-10T01:27:45.070Z,18.30
2024-02-10T01:30:14.410Z,14.57
2024-02-10T01:32:44.040Z,21.30
2024-02-10T01:35:12.325Z,16.38
2024-02-10T01:37:42.579Z,20.52
2024-02-10T01:40:12.791Z,19.80
2024-02-10T01:42:43.071Z,16.50
2024-02-10T01:45:15.297Z,20.45
2024-02-10T01:47:47.199Z,17.38
2024-02-10T01:50:16.020Z,21.95
2024-02-10T01:52:49.724Z,15.20
2024-02-10T01:55:24.566Z,18.08
2024-02-10T01:58:04.427Z,21.02
2024-02-10T02:03:47.749Z,19.20
2024-02-10T02:15:45.338Z,19.40
2024-02-10T02:21:37.133Z,21.48
2024-02-10T02:24:19.129Z,16.42
2024-02-10T02:58:45.276Z,20.08
2024-02-10T03:03:54.495Z,16.77
2024-02-10T03:06:22.409Z,15.90
2024-02-10T03:08:49.837Z,18.35
2024-02-10T03:11:20.914Z,22.23
2024-02-10T03:13:49.170Z,18.02
2024-02-10T03:16:23.956Z,19.35
2024-02-10T03:18:51.366Z,19.40
2024-02-10T03:21:19.385Z,20.42
2024-02-10T03:23:46.904Z,17.00
2024-02-10T03:26:14.946Z,18.60
2024-02-10T03:28:42.518Z,23.17
2024-02-10T03:31:11.188Z,18.33
2024-02-10T03:33:38.661Z,14.73
2024-02-10T03:36:06.589Z,23.45
2024-02-10T03:38:33.950Z,20.55
2024-02-10T03:41:01.470Z,17.27
2024-02-10T03:43:29.146Z,19.80
2024-02-10T03:45:56.516Z,23.63
2024-02-10T03:48:33.805Z,21.95
2024-02-10T03:51:01.291Z,18.95
2024-02-10T03:53:28.872Z,24.15
2024-02-10T03:55:58.264Z,19.80
2024-02-10T03:58:27.184Z,23.40
2024-02-10T04:00:55.321Z,20.65
2024-02-10T04:08:12.312Z,23.90
2024-02-10T04:13:34.338Z,23.17
2024-02-10T04:16:04.124Z,28.33
2024-02-10T04:21:18.078Z,25.70
2024-02-10T04:23:53.737Z,26.88
2024-02-10T04:26:31.636Z,25.90
2024-02-10T04:34:33.215Z,25.15
2024-02-10T04:37:01.611Z,21.85
2024-02-10T04:39:30.811Z,23.55
2024-02-10T04:41:59.503Z,25.00
2024-02-10T04:44:32.817Z,27.17
2024-02-10T04:49:45.301Z,32.50
2024-02-10T05:00:30.850Z,25.08
2024-02-10T05:05:46.901Z,25.33
2024-02-10T05:08:15.012Z,20.83
2024-02-10T05:16:12.640Z,22.48
2024-02-10T05:27:04.300Z,32.03
2024-02-10T05:29:46.562Z,29.10
2024-02-10T05:32:16.862Z,30.85
2024-02-10T05:34:47.815Z,29.00
2024-02-10T05:37:20.963Z,33.00
2024-02-10T05:45:14.854Z,30.85
2024-02-10T06:03:58.141Z,46.42
2024-02-10T06:06:29.313Z,43.05
2024-02-10T06:09:03.093Z,39.80
2024-02-10T06:14:20.993Z,30.95
2024-02-10T06:16:56.178Z,39.70
2024-02-10T06:19:26.667Z,38.80
2024-02-10T06:21:54.392Z,34.92
2024-02-10T06:24:31.452Z,36.58
2024-02-10T06:29:40.057Z,41.67
2024-02-10T06:32:07.674Z,28.33
2024-02-10T06:34:36.844Z,25.42
2024-02-10T06:37:09.397Z,28.75
2024-02-10T06:39:40.147Z,32.88
2024-02-10T06:42:10.860Z,28.23
2024-02-10T06:44:44.392Z,32.70
2024-02-10T06:47:16.719Z,31.15
2024-02-10T06:49:49.599Z,28.73
2024-02-10T06:52:17.573Z,30.55
2024-02-10T06:54:46.780Z,32.10
2024-02-10T06:57:27.238Z,29.40
2024-02-10T06:59:58.381Z,37.10
2024-02-10T07:02:31.330Z,28.98
2024-02-10T07:04:59.964Z,32.25
2024-02-10T07:07:28.292Z,31.10
2024-02-10T07:10:00.970Z,30.02
2024-02-10T07:12:35.098Z,32.40
2024-02-10T07:15:02.981Z,33.78
2024-02-10T07:17:37.371Z,27.73
2024-02-10T07:20:06.047Z,32.13
2024-02-10T07:22:35.990Z,33.75
2024-02-10T07:25:15.351Z,34.25
2024-02-10T07:27:46.588Z,32.85
2024-02-10T07:30:15.855Z,30.27
2024-02-10T07:32:50.339Z,42.35
2024-02-10T07:35:20.061Z,37.90
2024-02-10T07:37:50.421Z,27.15
2024-02-10T07:40:19.461Z,32.03
2024-02-10T07:42:47.914Z,31.52
2024-02-10T07:45:19.176Z,31.40
2024-02-10T07:47:48.437Z,26.65
2024-02-10T07:50:15.906Z,29.95
2024-02-10T07:52:46.764Z,35.35
2024-02-10T07:55:40.634Z,40.88
2024-02-10T07:58:11.296Z,37.55
2024-02-10T08:00:43.236Z,38.70
2024-02-10T08:03:14.633Z,34.70
2024-02-10T08:05:43.945Z,31.65
2024-02-10T08:08:12.112Z,28.15
2024-02-10T08:10:40.120Z,31.60
2024-02-10T08:13:07.935Z,30.38
2024-02-10T08:15:35.611Z,27.83
2024-02-10T08:18:07.300Z,35.85
2024-02-10T08:20:36.036Z,21.80
2024-02-10T08:23:04.130Z,28.23
2024-02-10T08:25:33.052Z,37.78
2024-02-10T08:28:02.594Z,35.53
2024-02-10T08:30:30.742Z,26.30
2024-02-10T08:33:03.160Z,36.92
2024-02-10T08:35:32.356Z,33.22
2024-02-10T08:37:59.947Z,39.70
2024-02-10T08:40:27.284Z,47.40
2024-02-10T08:42:55.561Z,46.65
2024-02-10T08:45:23.124Z,43.88
2024-02-10T08:47:51.139Z,33.22
2024-02-10T08:50:19.934Z,30.95
2024-02-10T08:52:53.077Z,31.42
2024-02-10T08:55:21.657Z,40.88
2024-02-10T08:57:52.563Z,37.25
2024-02-10T09:00:23.341Z,38.55
2024-02-10T09:02:52.384Z,42.15
2024-02-10T09:05:20.046Z,38.15
2024-02-10T09:43:42.133Z,33.20
2024-02-10T09:46:13.616Z,38.50
2024-02-10T09:48:55.041Z,34.83
2024-02-10T09:51:30.951Z,35.00
2024-02-10T09:54:01.598Z,38.88
2024-02-10T09:56:36.528Z,40.25
2024-02-10T09:59:08.673Z,34.08
2024-02-10T10:01:39.306Z,41.42
2024-02-10T10:04:13.744Z,43.42
2024-02-10T10:06:48.922Z,44.45
2024-02-10T10:09:20.185Z,46.97
2024-02-10T10:11:52.327Z,50.35
2024-02-10T10:14:22.347Z,51.95
2024-02-10T10:17:02.040Z,45.03
2024-02-10T10:19:32.068Z,43.70
2024-02-10T10:22:04.628Z,42.60
2024-02-10T10:24:59.984Z,49.10
2024-02-10T10:27:27.656Z,42.25
2024-02-10T10:29:58.856Z,45.75
2024-02-10T10:32:33.011Z,44.03
2024-02-10T10:35:02.952Z,54.78
2024-02-10T10:37:32.773Z,54.45
2024-02-10T10:40:13.086Z,46.67
2024-02-10T10:42:44.124Z,55.05
2024-02-10T10:45:16.941Z,52.40
2024-02-10T10:47:47.264Z,47.40
2024-02-10T10:50:17.895Z,37.33
2024-02-10T10:52:49.136Z,35.22
2024-02-10T10:55:19.625Z,36.38
2024-02-10T10:57:51.591Z,32.78
2024-02-10T11:00:22.502Z,38.25
2024-02-10T11:03:00.751Z,33.20
2024-02-10T11:05:28.417Z,34.47
2024-02-10T11:08:03.309Z,40.72
2024-02-10T11:31:00.943Z,28.60
2024-02-10T11:36:32.334Z,32.28
2024-02-10T11:39:01.206Z,29.50
2024-02-10T11:41:33.483Z,34.85
2024-02-10T11:44:14.517Z,33.08
2024-02-10T11:46:50.117Z,36.80
2024-02-10T11:49:27.669Z,31.67
2024-02-10T11:52:05.377Z,28.08
2024-02-10T11:54:53.547Z,27.25
2024-02-10T11:57:25.106Z,33.00
2024-02-10T11:59:57.645Z,29.60
2024-02-10T12:02:34.024Z,31.80
2024-02-10T12:05:06.197Z,30.10
2024-02-10T12:07:48.448Z,34.28
2024-02-10T12:10:21.716Z,29.58
2024-02-10T12:13:06.109Z,27.20
2024-02-10T13:05:02.689Z,25.80
2024-02-10T13:20:52.143Z,27.08
2024-02-10T13:23:20.957Z,21.98
2024-02-10T13:25:53.421Z,27.27
2024-02-10T13:28:26.174Z,30.60
2024-02-10T13:30:54.635Z,29.27
2024-02-10T13:33:25.346Z,27.98
2024-02-10T13:35:56.268Z,33.85
2024-02-10T13:38:45.275Z,28.75
2024-02-10T13:41:31.176Z,26.52
2024-02-10T13:44:17.271Z,29.30
2024-02-10T13:47:10.006Z,31.23
2024-02-10T13:50:00.866Z,27.52
2024-02-10T13:52:54.455Z,24.67
2024-02-10T13:55:55.545Z,23.98
2024-02-10T14:01:54.916Z,26.02
2024-02-10T14:04:41.375Z,28.02
2024-02-10T14:07:36.218Z,27.10
2024-02-10T14:10:12.754Z,24.90
2024-02-10T14:12:51.821Z,25.80
2024-02-10T14:15:28.801Z,26.13
2024-02-10T14:18:02.611Z,30.20
2024-02-10T14:20:39.325Z,28.90
2024-02-10T14:23:13.604Z,31.05
2024-02-10T14:25:48.185Z,28.17
2024-02-10T14:31:17.848Z,25.45
2024-02-10T14:34:03.196Z,34.15
2024-02-10T14:36:39.261Z,40.53
2024-02-10T14:39:10.857Z,31.30
2024-02-10T14:41:53.095Z,27.45
2024-02-10T14:47:58.629Z,24.27
2024-02-10T14:50:30.682Z,31.73
2024-02-10T14:58:40.773Z,28.92
2024-02-10T15:07:00.342Z,34.17
2024-02-10T15:12:28.747Z,31.40
2024-02-10T15:15:06.281Z,31.75
2024-02-10T15:18:04.278Z,34.05
2024-02-10T15:20:51.076Z,37.17
2024-02-10T15:23:19.517Z,32.28
2024-02-10T15:25:49.509Z,31.65
2024-02-10T15:28:36.106Z,36.00
2024-02-10T15:31:29.876Z,28.80
2024-02-10T15:34:07.841Z,28.30
2024-02-10T15:37:00.764Z,36.10
2024-02-10T15:39:38.666Z,23.92
2024-02-10T15:42:33.222Z,25.83
2024-02-10T15:45:38.618Z,30.25
2024-02-10T15:48:18.846Z,22.65
2024-02-10T15:50:47.379Z,30.40
2024-02-10T15:53:54.678Z,32.55
2024-02-10T15:56:29.501Z,26.23
2024-02-10T15:59:08.041Z,31.75
2024-02-10T16:01:44.416Z,29.95
2024-02-10T16:04:15.276Z,38.65
2024-02-10T16:06:48.403Z,34.55
2024-02-10T16:09:18.791Z,31.83
2024-02-10T16:11:52.304Z,30.63
2024-02-10T16:14:29.438Z,32.25
2024-02-10T16:17:02.398Z,34.30
2024-02-10T16:19:30.974Z,35.13
2024-02-10T16:22:00.884Z,29.73
2024-02-10T16:24:31.164Z,34.33
2024-02-10T16:27:02.082Z,50.30
2024-02-10T16:29:29.516Z,30.65
2024-02-10T16:31:59.943Z,26.75
2024-02-10T16:34:30.160Z,37.55
2024-02-10T16:37:00.062Z,31.35
2024-02-10T16:39:27.415Z,40.80
2024-02-10T16:41:58.866Z,44.70
2024-02-10T16:44:29.252Z,41.95
2024-02-10T16:47:01.159Z,36.03
2024-02-10T16:49:52.000Z,49.30
2024-02-10T16:52:25.297Z,38.10
2024-02-10T16:54:56.799Z,33.95
2024-02-10T16:57:49.185Z,45.03
2024-02-10T17:00:28.312Z,38.05
2024-02-10T17:03:02.655Z,39.85
2024-02-10T17:05:34.937Z,35.85
2024-02-10T17:08:04.075Z,35.58
2024-02-10T17:10:36.466Z,48.45
2024-02-10T17:13:08.471Z,41.63
2024-02-10T17:15:44.392Z,22.13
2024-02-10T17:18:15.794Z,46.63
2024-02-10T17:21:02.373Z,29.00
2024-02-10T17:23:35.372Z,49.67
2024-02-10T17:26:08.532Z,41.47
2024-02-10T17:28:38.937Z,21.52
2024-02-10T17:31:15.652Z,32.58
2024-02-10T17:33:45.858Z,40.28
2024-02-10T17:36:23.456Z,39.55
2024-02-10T17:39:03.932Z,35.08
2024-02-10T17:41:33.603Z,36.30
2024-02-10T17:44:01.898Z,38.80
2024-02-10T17:46:31.693Z,34.92
2024-02-10T17:49:02.209Z,38.65
2024-02-10T17:51:30.679Z,40.60
2024-02-10T17:54:09.881Z,39.65
2024-02-10T17:56:38.381Z,34.85
2024-02-10T17:59:06.438Z,28.15
2024-02-10T18:01:34.338Z,38.70
2024-02-10T18:04:02.306Z,26.10
2024-02-10T18:06:32.323Z,45.08
2024-02-10T18:09:05.062Z,39.92
2024-02-10T18:15:06.561Z,33.53
2024-02-10T18:17:34.084Z,32.38
2024-02-10T18:20:03.283Z,41.13
2024-02-10T18:22:34.465Z,34.47
2024-02-10T18:25:05.356Z,35.33
2024-02-10T18:27:34.002Z,36.33
2024-02-10T18:30:04.904Z,35.38
2024-02-10T18:32:34.034Z,33.60
2024-02-10T18:35:03.151Z,40.38
2024-02-10T18:37:52.230Z,32.92
2024-02-10T18:40:20.490Z,41.50
2024-02-10T18:42:49.151Z,40.95
2024-02-10T18:45:45.791Z,41.45
2024-02-10T18:48:21.679Z,30.17
2024-02-10T18:50:55.004Z,35.63
2024-02-10T18:53:22.900Z,38.20
2024-02-10T18:55:51.743Z,38.30
2024-02-10T18:58:19.327Z,44.25
2024-02-10T19:00:50.712Z,49.42
2024-02-10T19:03:18.324Z,44.92
2024-02-10T19:05:48.230Z,40.63
2024-02-10T19:08:16.811Z,37.83
2024-02-10T19:10:45.453Z,43.90
2024-02-10T19:13:16.674Z,50.00
2024-02-10T19:15:44.307Z,37.80
2024-02-10T19:18:15.700Z,51.88
2024-02-10T19:20:48.561Z,45.65
2024-02-10T19:23:16.491Z,47.28
2024-02-10T19:25:53.249Z,40.38
2024-02-10T19:28:20.739Z,37.95
2024-02-10T19:30:50.937Z,50.88
2024-02-10T19:33:20.852Z,36.15
2024-02-10T19:35:57.845Z,46.80
2024-02-10T19:38:30.343Z,41.03
2024-02-10T19:41:04.247Z,43.97
2024-02-10T19:43:32.039Z,45.17
2024-02-10T19:46:01.786Z,46.00
2024-02-10T19:48:32.789Z,49.85
2024-02-10T19:51:07.705Z,49.80
2024-02-10T19:53:36.693Z,42.35
2024-02-10T19:56:05.852Z,48.35
2024-02-10T19:58:35.863Z,46.78
2024-02-10T20:01:04.566Z,84.00
2024-02-10T20:03:32.509Z,44.63
2024-02-10T20:06:06.511Z,46.22
2024-02-10T20:08:36.749Z,48.45
2024-02-10T20:11:05.401Z,51.60
2024-02-10T20:13:32.891Z,44.50
2024-02-10T20:18:49.254Z,37.78
2024-02-10T20:21:17.821Z,35.65
2024-02-10T20:23:45.978Z,39.72
2024-02-10T20:26:14.544Z,36.65
2024-02-10T20:28:43.477Z,45.50
2024-02-10T20:31:18.441Z,40.90
2024-02-10T20:33:53.846Z,36.42
2024-02-10T20:36:28.552Z,40.03
2024-02-10T20:38:58.029Z,46.15
2024-02-10T20:41:25.611Z,40.38
2024-02-10T20:43:52.930Z,29.85
2024-02-10T20:46:24.948Z,43.05
2024-02-10T20:48:54.087Z,44.75
2024-02-10T20:51:21.333Z,47.25
2024-02-10T20:53:48.882Z,51.22
2024-02-10T20:56:16.943Z,42.25
2024-02-10T20:58:45.450Z,62.20
2024-02-10T21:01:12.946Z,41.20
2024-02-10T21:03:40.672Z,39.90
2024-02-10T21:06:08.578Z,39.70
2024-02-10T21:08:39.006Z,39.15
2024-02-10T21:11:07.304Z,42.92
2024-02-10T21:13:35.048Z,41.33
2024-02-10T21:16:04.462Z,40.92
2024-02-10T21:18:34.427Z,38.75
2024-02-10T21:21:02.069Z,32.10
2024-02-10T21:23:32.044Z,35.80
2024-02-10T21:25:59.457Z,38.53
2024-02-10T21:28:28.628Z,46.38
2024-02-10T21:31:06.316Z,40.80
2024-02-10T21:36:03.757Z,35.92
2024-02-10T21:38:31.226Z,45.85
2024-02-10T21:40:58.685Z,48.72
2024-02-10T21:43:26.546Z,41.80
2024-02-10T21:45:56.223Z,40.58
2024-02-10T21:48:23.822Z,41.85
2024-02-10T21:50:51.149Z,46.63
2024-02-10T21:53:18.981Z,41.85
2024-02-10T21:55:46.983Z,42.13
2024-02-10T21:58:15.490Z,42.65
2024-02-10T22:00:42.916Z,43.03
2024-02-10T22:03:12.833Z,43.47
2024-02-10T22:05:42.502Z,39.28
2024-02-10T22:08:10.000Z,48.40
2024-02-10T22:10:38.508Z,40.78
2024-02-10T22:13:08.079Z,37.97
2024-02-10T22:15:43.975Z,50.55
2024-02-10T22:18:14.959Z,36.70
2024-02-10T22:20:43.349Z,43.75
